Accueil
Images satellite Prévisions 15 joursClimatMétéo marine Cyclones Foudre AéroportsFAQ Actualités A propos
Météo : Europe Afrique Amérique du Nord Amérique du Sud Asie Australie-Océanie Autres
Langues Contact

Carcassonne, France

Salvaza

latitude: 43-13N, longitude: 002-19E, altitude: 130 m


METAR: LFMK 310400Z AUTO 28008KT 240V310 9999 FEW039 OVC054 20/13 Q1018
short-TAF: périmé (8516 heures)
long-TAF: LFMK 301700Z 3018/3118 30015KT 9999 NSC

Heure: 06:27 (04:27 UTC)

Observation

Le bulletin a été fait il y a 26 minutes, à 04:00 UTC  
Vent 08 kt de ouest, variant entre ouest/sud-ouest et nord-ouest
Température 20°C
Humidité 64%
Pression 1018 hPa
Visibilité 10 km ou plus
Quelques nuages à une hauteur de 3900 ft
Ciel couvert à une hauteur de 5400 ft

Changer d'unités

Prévision

Le bulletin a été fait il y a 11 heures et 12 minutes, à 17:15 UTC  
Prévision valable du 30 à 18 UTC au 31 à 18 UTC
Vent 15 kt de ouest/nord-ouest
Visibilité 10 km ou plus
Les informations qui figurent sur ce site font l'objet d'une clause de non-responsabilité
Météo : Europe Afrique Amérique du Nord Amérique du Sud Asie Australie-Océanie Autres
Images satellite Prévisions 15 joursClimatMétéo marine Cyclones Foudre AéroportsFAQ Langues Contact Actualités A propos